createdAt,value
2018-08-09T00:00:26.014Z,7.57
2018-08-09T00:02:55.724Z,7.37
2018-08-09T00:05:25.523Z,8.37
2018-08-09T00:07:55.589Z,7.40
2018-08-09T00:10:26.674Z,8.27
2018-08-09T00:12:56.618Z,8.53
2018-08-09T00:15:26.894Z,8.67
2018-08-09T00:17:56.856Z,8.57
2018-08-09T00:20:26.662Z,8.10
2018-08-09T00:22:56.456Z,8.13
2018-08-09T00:25:26.408Z,8.07
2018-08-09T00:27:56.282Z,8.83
2018-08-09T00:30:26.137Z,7.90
2018-08-09T00:32:56.252Z,8.20
2018-08-09T00:35:26.540Z,9.10
2018-08-09T00:37:56.900Z,8.90
2018-08-09T00:40:26.781Z,9.53
2018-08-09T00:42:56.756Z,8.10
2018-08-09T00:45:26.567Z,8.40
2018-08-09T00:47:56.495Z,8.40
2018-08-09T00:50:26.637Z,8.60
2018-08-09T00:52:56.398Z,8.20
2018-08-09T00:55:26.148Z,7.57
2018-08-09T00:57:56.298Z,7.90
2018-08-09T01:00:26.130Z,8.33
2018-08-09T01:02:56.000Z,8.07
2018-08-09T01:05:25.876Z,8.13
2018-08-09T01:07:56.188Z,8.57
2018-08-09T01:10:26.468Z,7.70
2018-08-09T01:12:56.498Z,8.17
2018-08-09T01:15:26.481Z,7.70
2018-08-09T01:17:56.363Z,7.93
2018-08-09T01:20:26.112Z,8.13
2018-08-09T01:22:56.136Z,7.17
2018-08-09T01:25:25.905Z,8.00
2018-08-09T01:27:55.907Z,7.90
2018-08-09T01:30:25.815Z,7.17
2018-08-09T01:32:55.535Z,7.40
2018-08-09T01:35:26.345Z,7.37
2018-08-09T01:37:56.034Z,6.60
2018-08-09T01:40:25.871Z,7.00
2018-08-09T01:43:12.689Z,6.30
2018-08-09T01:45:42.992Z,6.47
2018-08-09T01:48:12.879Z,6.60
2018-08-09T01:50:44.230Z,6.63
2018-08-09T01:53:14.299Z,6.70
2018-08-09T01:55:44.502Z,6.77
2018-08-09T01:58:18.473Z,6.43
2018-08-09T02:00:48.054Z,6.33
2018-08-09T02:03:43.405Z,7.00
2018-08-09T02:06:14.232Z,7.50
2018-08-09T02:08:45.204Z,7.17
2018-08-09T02:11:14.930Z,7.07
2018-08-09T02:13:45.519Z,6.87
2018-08-09T02:16:15.425Z,7.47
2018-08-09T02:18:46.456Z,6.87
2018-08-09T02:21:16.775Z,6.63
2018-08-09T02:23:47.497Z,7.00
2018-08-09T02:26:17.145Z,7.40
2018-08-09T02:28:47.139Z,7.30
2018-08-09T02:31:17.268Z,6.47
2018-08-09T02:33:47.753Z,6.70
2018-08-09T02:36:23.866Z,7.00
2018-08-09T02:38:53.912Z,8.23
2018-08-09T02:41:24.244Z,8.20
2018-08-09T02:43:54.215Z,8.50
2018-08-09T02:46:24.007Z,9.77
2018-08-09T02:48:53.753Z,9.37
2018-08-09T02:51:24.064Z,9.43
2018-08-09T02:53:53.810Z,10.10
2018-08-09T02:56:24.356Z,10.13
2018-08-09T02:58:54.479Z,9.53
2018-08-09T03:01:24.691Z,9.00
2018-08-09T03:03:54.568Z,9.23
2018-08-09T03:06:24.866Z,9.53
2018-08-09T03:08:54.744Z,10.47
2018-08-09T03:11:24.800Z,10.80
2018-08-09T03:13:54.670Z,12.23
2018-08-09T03:16:24.837Z,13.93
2018-08-09T03:18:54.958Z,13.63
2018-08-09T03:21:24.852Z,15.93
2018-08-09T03:23:55.234Z,14.43
2018-08-09T03:26:27.963Z,15.27
2018-08-09T03:28:58.535Z,15.03
2018-08-09T03:31:28.352Z,14.83
2018-08-09T03:33:58.230Z,15.13
2018-08-09T03:36:29.096Z,15.33
2018-08-09T03:38:58.862Z,14.33
2018-08-09T03:41:28.796Z,15.27
2018-08-09T03:43:58.654Z,13.90
2018-08-09T03:46:28.285Z,16.23
2018-08-09T03:48:58.591Z,14.70
2018-08-09T03:51:28.372Z,15.63
2018-08-09T03:53:58.139Z,14.50
2018-08-09T03:56:28.265Z,14.70
2018-08-09T03:58:58.268Z,15.80
2018-08-09T04:01:28.314Z,16.60
2018-08-09T04:03:58.217Z,17.23
2018-08-09T04:06:28.359Z,18.03
2018-08-09T04:08:58.296Z,17.77
2018-08-09T04:11:28.386Z,16.80
2018-08-09T04:13:58.103Z,13.67
2018-08-09T04:16:28.065Z,15.33
2018-08-09T04:18:58.279Z,14.63
2018-08-09T04:21:28.283Z,14.10
2018-08-09T04:23:58.265Z,14.57
2018-08-09T04:26:28.032Z,13.70
2018-08-09T04:28:57.997Z,13.60
2018-08-09T04:31:28.839Z,13.03
2018-08-09T04:33:58.775Z,14.63
2018-08-09T04:36:28.543Z,13.47
2018-08-09T04:38:58.784Z,12.90
2018-08-09T04:41:28.595Z,12.10
2018-08-09T04:43:58.860Z,12.47
2018-08-09T04:46:29.545Z,14.83
2018-08-09T04:49:00.220Z,14.03
2018-08-09T04:51:30.130Z,13.63
2018-08-09T04:54:00.606Z,12.20
2018-08-09T04:56:30.812Z,15.27
2018-08-09T04:59:00.977Z,14.23
2018-08-09T05:01:35.790Z,15.10
2018-08-09T05:04:05.684Z,13.97
2018-08-09T05:06:36.288Z,13.70
2018-08-09T05:09:10.041Z,13.93
2018-08-09T05:11:40.305Z,13.47
2018-08-09T05:14:10.072Z,14.00
2018-08-09T05:16:40.372Z,14.23
2018-08-09T05:19:10.380Z,13.90
2018-08-09T05:21:40.691Z,13.77
2018-08-09T05:24:10.675Z,14.57
2018-08-09T05:26:40.491Z,13.87
2018-08-09T05:29:17.977Z,14.13
2018-08-09T05:31:48.517Z,14.90
2018-08-09T05:34:18.478Z,14.80
2018-08-09T05:36:48.228Z,15.80
2018-08-09T05:39:18.844Z,16.13
2018-08-09T05:41:48.540Z,17.00
2018-08-09T05:44:18.200Z,17.80
2018-08-09T05:46:48.607Z,15.63
2018-08-09T05:49:18.521Z,14.00
2018-08-09T05:51:48.264Z,14.00
2018-08-09T05:54:18.058Z,14.27
2018-08-09T05:56:48.305Z,14.20
2018-08-09T05:59:18.429Z,13.60
2018-08-09T06:01:48.356Z,12.63
2018-08-09T06:04:18.757Z,13.93
2018-08-09T06:06:49.058Z,14.33
2018-08-09T06:09:19.072Z,13.83
2018-08-09T06:11:49.709Z,12.87
2018-08-09T06:14:20.766Z,12.43
2018-08-09T06:16:50.770Z,13.17
2018-08-09T06:19:21.046Z,12.73
2018-08-09T06:21:51.251Z,13.03
2018-08-09T06:24:21.631Z,12.70
2018-08-09T06:26:52.619Z,12.60
2018-08-09T06:29:22.812Z,12.87
2018-08-09T06:31:52.935Z,14.40
2018-08-09T06:34:23.517Z,14.13
2018-08-09T06:36:53.518Z,13.97
2018-08-09T06:39:23.270Z,13.77
2018-08-09T06:41:52.979Z,14.30
2018-08-09T06:44:22.880Z,13.07
2018-08-09T06:46:52.818Z,12.97
2018-08-09T06:49:24.001Z,12.57
2018-08-09T06:51:54.756Z,14.53
2018-08-09T06:54:24.641Z,13.27
2018-08-09T06:56:56.567Z,13.87
2018-08-09T06:59:26.743Z,14.00
2018-08-09T07:01:56.779Z,15.00
2018-08-09T07:04:26.847Z,14.97
2018-08-09T07:06:56.730Z,15.10
2018-08-09T07:09:26.611Z,15.33
2018-08-09T07:11:56.355Z,15.70
2018-08-09T07:14:26.231Z,14.70
2018-08-09T07:16:56.450Z,15.70
2018-08-09T07:19:26.280Z,17.23
2018-08-09T07:21:56.523Z,16.77
2018-08-09T07:24:26.355Z,16.83
2018-08-09T07:26:56.343Z,17.47
2018-08-09T07:29:26.150Z,15.17
2018-08-09T07:31:56.222Z,14.87
2018-08-09T07:34:26.064Z,14.30
2018-08-09T07:36:55.828Z,14.37
2018-08-09T07:39:26.569Z,15.00
2018-08-09T07:41:56.442Z,14.60
2018-08-09T07:44:26.862Z,16.93
2018-08-09T07:46:56.881Z,16.53
2018-08-09T07:49:26.599Z,16.70
2018-08-09T07:51:57.362Z,18.30
2018-08-09T07:54:28.549Z,20.77
2018-08-09T07:56:58.709Z,22.10
2018-08-09T07:59:28.819Z,24.80
2018-08-09T08:01:58.652Z,26.87
2018-08-09T08:04:29.062Z,25.73
2018-08-09T08:06:58.971Z,28.03
2018-08-09T08:09:29.759Z,29.03
2018-08-09T08:12:00.950Z,32.20
2018-08-09T08:14:31.000Z,32.97
2018-08-09T08:17:01.087Z,33.67
2018-08-09T08:19:31.218Z,34.73
2018-08-09T08:22:01.899Z,34.40
2018-08-09T08:24:32.514Z,34.03
2018-08-09T08:27:03.145Z,34.67
2018-08-09T08:29:36.070Z,34.47
2018-08-09T08:32:06.176Z,36.20
2018-08-09T08:34:36.412Z,35.80
2018-08-09T08:37:06.711Z,35.37
2018-08-09T08:39:36.471Z,35.73
2018-08-09T08:42:07.081Z,31.87
2018-08-09T08:44:37.014Z,33.37
2018-08-09T08:47:07.671Z,31.50
2018-08-09T08:49:37.687Z,30.83
2018-08-09T08:52:07.791Z,30.27
2018-08-09T08:54:38.323Z,27.90
2018-08-09T08:57:08.217Z,29.10
2018-08-09T08:59:38.688Z,31.13
2018-08-09T09:02:08.713Z,30.17
2018-08-09T09:04:38.816Z,31.73
2018-08-09T09:07:08.618Z,29.07
2018-08-09T09:09:38.256Z,31.37
2018-08-09T09:12:08.577Z,32.63
2018-08-09T09:14:39.003Z,32.30
2018-08-09T09:17:08.934Z,30.53
2018-08-09T09:19:39.016Z,29.93
2018-08-09T09:22:08.849Z,29.63
2018-08-09T09:24:38.506Z,30.07
2018-08-09T09:27:08.638Z,29.43
2018-08-09T09:29:38.469Z,28.57
2018-08-09T09:32:09.045Z,29.80
2018-08-09T09:34:39.193Z,27.03
2018-08-09T09:37:09.370Z,27.53
2018-08-09T09:39:39.560Z,25.93
2018-08-09T09:42:09.667Z,25.27
2018-08-09T09:44:39.905Z,25.77
2018-08-09T09:47:09.919Z,24.60
2018-08-09T09:49:40.627Z,25.53
2018-08-09T09:52:10.569Z,25.87
2018-08-09T09:54:40.791Z,26.43
2018-08-09T09:57:11.015Z,26.20
2018-08-09T09:59:40.926Z,25.97
2018-08-09T10:02:17.268Z,25.70
2018-08-09T10:04:47.936Z,23.57
2018-08-09T10:07:18.094Z,23.23
2018-08-09T10:09:48.011Z,23.67
2018-08-09T10:12:17.768Z,25.27
2018-08-09T10:14:47.647Z,23.90
2018-08-09T10:17:18.466Z,22.73
2018-08-09T10:19:48.357Z,22.63
2018-08-09T10:22:18.386Z,21.50
2018-08-09T10:24:49.097Z,22.73
2018-08-09T10:27:18.863Z,23.00
2018-08-09T10:29:49.556Z,24.57
2018-08-09T10:32:19.407Z,24.53
2018-08-09T10:34:49.384Z,23.67
2018-08-09T10:37:19.661Z,23.87
2018-08-09T10:39:49.428Z,23.67
2018-08-09T10:42:19.560Z,22.77
2018-08-09T10:44:49.509Z,21.07
2018-08-09T10:47:19.558Z,17.57
2018-08-09T10:49:50.126Z,17.10
2018-08-09T10:52:20.474Z,13.83
2018-08-09T10:54:50.413Z,14.93
2018-08-09T10:57:20.289Z,14.80
2018-08-09T10:59:50.817Z,15.40
2018-08-09T11:02:21.013Z,15.15
2018-08-09T11:04:51.132Z,15.05
2018-08-09T11:07:21.061Z,14.85
2018-08-09T11:09:51.473Z,16.23
2018-08-09T11:12:21.228Z,15.65
2018-08-09T11:14:51.034Z,16.32
2018-08-09T11:17:21.223Z,15.40
2018-08-09T11:19:51.516Z,14.83
2018-08-09T11:22:21.644Z,16.37
2018-08-09T11:24:52.082Z,15.72
2018-08-09T11:27:22.407Z,16.67
2018-08-09T11:29:52.410Z,16.63
2018-08-09T11:32:22.342Z,15.67
2018-08-09T11:34:52.251Z,16.00
2018-08-09T11:37:22.889Z,14.60
2018-08-09T11:39:53.001Z,12.47
2018-08-09T11:42:23.089Z,13.00
2018-08-09T11:44:53.122Z,12.60
2018-08-09T11:47:22.997Z,12.93
2018-08-09T11:49:52.774Z,13.27
2018-08-09T11:52:22.696Z,12.73
2018-08-09T11:54:52.443Z,11.77
2018-08-09T11:57:22.270Z,12.13
2018-08-09T11:59:52.275Z,11.93
2018-08-09T12:02:22.966Z,12.30
2018-08-09T12:04:52.985Z,12.00
2018-08-09T12:07:23.207Z,12.17
2018-08-09T12:09:53.152Z,11.93
2018-08-09T12:12:22.834Z,11.57
2018-08-09T12:14:52.922Z,11.33
2018-08-09T12:17:22.989Z,12.13
2018-08-09T12:19:53.196Z,12.13
2018-08-09T12:22:23.420Z,11.77
2018-08-09T12:24:53.799Z,11.90
2018-08-09T12:27:23.589Z,10.90
2018-08-09T12:29:53.543Z,11.17
2018-08-09T12:32:24.440Z,11.73
2018-08-09T12:34:54.261Z,11.03
2018-08-09T12:37:24.204Z,12.10
2018-08-09T12:39:54.144Z,11.43
2018-08-09T12:42:24.092Z,11.37
2018-08-09T12:44:53.811Z,11.40
2018-08-09T12:47:24.213Z,10.90
2018-08-09T12:49:54.147Z,11.47
2018-08-09T12:52:24.732Z,11.47
2018-08-09T12:54:54.496Z,10.67
2018-08-09T12:57:24.228Z,10.80
2018-08-09T12:59:54.080Z,11.00
2018-08-09T13:02:23.841Z,12.00
2018-08-09T13:04:53.601Z,10.93
2018-08-09T13:07:23.823Z,11.23
2018-08-09T13:09:53.922Z,11.27
2018-08-09T13:12:23.928Z,10.87
2018-08-09T13:14:53.721Z,10.00
2018-08-09T13:17:24.054Z,9.63
2018-08-09T13:19:54.069Z,10.77
2018-08-09T13:22:24.360Z,10.20
2018-08-09T13:24:54.247Z,10.00
2018-08-09T13:27:24.637Z,10.60
2018-08-09T13:29:54.795Z,10.30
2018-08-09T13:32:25.335Z,9.70
2018-08-09T13:34:56.261Z,10.20
2018-08-09T13:37:26.302Z,9.60
2018-08-09T13:39:56.591Z,10.20
2018-08-09T13:42:26.273Z,9.93
2018-08-09T13:44:56.235Z,9.78
2018-08-09T13:47:26.278Z,9.60
2018-08-09T13:49:56.834Z,9.68
2018-08-09T13:52:27.537Z,8.95
2018-08-09T13:54:57.364Z,9.68
2018-08-09T13:57:27.300Z,9.75
2018-08-09T13:59:58.277Z,9.20
2018-08-09T14:02:28.608Z,9.68
2018-08-09T14:04:58.524Z,9.08
2018-08-09T14:07:28.335Z,9.40
2018-08-09T14:09:59.163Z,9.30
2018-08-09T14:12:29.078Z,8.68
2018-08-09T14:14:58.696Z,8.68
2018-08-09T14:17:28.475Z,8.98
2018-08-09T14:19:58.908Z,8.40
2018-08-09T14:22:29.306Z,9.48
2018-08-09T14:24:59.200Z,8.38
2018-08-09T14:27:28.934Z,7.00
2018-08-09T14:29:58.683Z,7.17
2018-08-09T14:32:28.756Z,6.75
2018-08-09T14:34:58.864Z,7.25
2018-08-09T14:37:29.448Z,6.50
2018-08-09T14:39:59.269Z,6.35
2018-08-09T14:42:29.167Z,6.62
2018-08-09T14:44:59.045Z,7.12
2018-08-09T14:47:28.953Z,7.05
2018-08-09T14:49:58.752Z,7.10
2018-08-09T14:52:28.449Z,7.05
2018-08-09T14:54:58.499Z,6.90
2018-08-09T14:57:28.872Z,6.45
2018-08-09T14:59:58.842Z,6.50
2018-08-09T15:02:29.326Z,5.90
2018-08-09T15:04:59.391Z,6.60
2018-08-09T15:07:29.242Z,8.63
2018-08-09T15:09:59.235Z,7.20
2018-08-09T15:12:29.037Z,6.70
2018-08-09T15:14:59.134Z,6.80
2018-08-09T15:17:29.099Z,6.83
2018-08-09T15:19:59.263Z,6.13
2018-08-09T15:22:29.106Z,5.60
2018-08-09T15:24:58.957Z,5.40
2018-08-09T15:27:29.253Z,5.03
2018-08-09T15:29:59.395Z,5.10
2018-08-09T15:32:29.284Z,4.40
2018-08-09T15:34:59.033Z,4.83
2018-08-09T15:37:28.925Z,4.50
2018-08-09T15:39:58.819Z,5.23
2018-08-09T15:42:28.581Z,5.23
2018-08-09T15:44:58.558Z,5.53
2018-08-09T15:47:28.514Z,5.13
2018-08-09T15:49:58.444Z,5.07
2018-08-09T15:52:28.339Z,5.13
2018-08-09T15:54:58.505Z,5.20
2018-08-09T15:57:28.637Z,5.10
2018-08-09T15:59:58.937Z,4.50
2018-08-09T16:02:29.092Z,4.60
2018-08-09T16:04:58.893Z,4.73
2018-08-09T16:07:28.907Z,4.20
2018-08-09T16:09:58.894Z,4.07
2018-08-09T16:12:29.899Z,4.63
2018-08-09T16:14:59.772Z,4.27
2018-08-09T16:17:29.674Z,3.93
2018-08-09T16:20:00.178Z,3.40
2018-08-09T16:22:30.461Z,3.10
2018-08-09T16:25:00.830Z,3.60
2018-08-09T16:27:30.810Z,3.30
2018-08-09T16:30:00.566Z,3.57
2018-08-09T16:32:30.461Z,3.83
2018-08-09T16:35:00.415Z,3.70
2018-08-09T16:37:31.027Z,3.87
2018-08-09T16:40:00.891Z,3.30
2018-08-09T16:42:31.259Z,3.27
2018-08-09T16:45:01.290Z,3.67
2018-08-09T16:47:31.444Z,3.90
2018-08-09T16:50:01.594Z,3.50
2018-08-09T16:52:31.653Z,3.70
2018-08-09T16:55:02.354Z,3.73
2018-08-09T16:57:32.873Z,3.60
2018-08-09T17:00:02.861Z,3.47
2018-08-09T17:02:32.667Z,3.20
2018-08-09T17:05:02.884Z,3.50
2018-08-09T17:07:33.033Z,3.13
2018-08-09T17:10:03.344Z,3.17
2018-08-09T17:12:33.636Z,3.47
2018-08-09T17:15:03.423Z,3.33
2018-08-09T17:17:33.024Z,3.40
2018-08-09T17:20:02.771Z,3.43
2018-08-09T17:22:33.093Z,4.10
2018-08-09T17:25:03.153Z,3.63
2018-08-09T17:27:32.880Z,3.87
2018-08-09T17:30:03.046Z,3.70
2018-08-09T17:32:38.269Z,4.13
2018-08-09T17:35:14.814Z,4.57
2018-08-09T17:37:44.816Z,4.27
2018-08-09T17:40:27.549Z,4.30
2018-08-09T17:42:58.595Z,4.33
2018-08-09T17:45:32.532Z,4.53
2018-08-09T17:48:03.570Z,4.30
2018-08-09T17:50:33.847Z,4.50
2018-08-09T17:53:05.107Z,4.43
2018-08-09T17:55:35.239Z,4.40
2018-08-09T17:58:05.667Z,4.33
2018-08-09T18:00:36.201Z,4.23
2018-08-09T18:03:06.398Z,4.07
2018-08-09T18:05:37.393Z,4.70
2018-08-09T18:08:07.435Z,4.80
2018-08-09T18:10:37.653Z,4.67
2018-08-09T18:13:07.409Z,4.10
2018-08-09T18:15:37.436Z,4.60
2018-08-09T18:18:07.946Z,4.17
2018-08-09T18:20:38.736Z,4.27
2018-08-09T18:23:08.915Z,4.20
2018-08-09T18:25:38.896Z,4.03
2018-08-09T18:28:10.095Z,4.27
2018-08-09T18:30:40.060Z,4.43
2018-08-09T18:33:09.873Z,4.43
2018-08-09T18:35:40.687Z,4.03
2018-08-09T18:38:12.061Z,4.00
2018-08-09T18:40:41.971Z,4.40
2018-08-09T18:43:12.039Z,4.07
2018-08-09T18:45:42.606Z,4.67
2018-08-09T18:48:13.323Z,3.77
2018-08-09T18:50:43.093Z,3.97
2018-08-09T18:53:12.819Z,3.80
2018-08-09T18:55:42.626Z,4.13
2018-08-09T18:58:13.661Z,3.53
2018-08-09T19:00:44.088Z,4.07
2018-08-09T19:03:13.841Z,4.15
2018-08-09T19:05:43.905Z,3.70
2018-08-09T19:08:14.934Z,3.70
2018-08-09T19:10:44.733Z,3.87
2018-08-09T19:13:15.301Z,3.57
2018-08-09T19:15:45.121Z,3.60
2018-08-09T19:18:14.956Z,3.57
2018-08-09T19:20:44.669Z,3.50
2018-08-09T19:23:15.880Z,3.30
2018-08-09T19:25:45.553Z,3.40
2018-08-09T19:28:15.341Z,3.70
2018-08-09T19:30:45.502Z,3.23
2018-08-09T19:33:15.807Z,3.30
2018-08-09T19:35:46.038Z,3.50
2018-08-09T19:38:15.796Z,3.67
2018-08-09T19:40:45.830Z,3.60
2018-08-09T19:43:15.706Z,3.30
2018-08-09T19:45:45.550Z,3.17
2018-08-09T19:48:15.391Z,3.30
2018-08-09T19:50:45.293Z,3.20
2018-08-09T19:53:15.402Z,3.03
2018-08-09T19:55:45.484Z,3.30
2018-08-09T19:58:15.616Z,4.03
2018-08-09T20:00:45.373Z,4.03
2018-08-09T20:03:17.154Z,3.13
2018-08-09T20:05:46.836Z,3.40
2018-08-09T20:08:16.817Z,3.37
2018-08-09T20:10:46.961Z,3.30
2018-08-09T20:13:16.943Z,3.20
2018-08-09T20:15:47.040Z,3.03
2018-08-09T20:18:17.320Z,3.13
2018-08-09T20:20:47.348Z,3.00
2018-08-09T20:23:17.458Z,2.63
2018-08-09T20:25:48.352Z,2.60
2018-08-09T20:28:18.261Z,2.47
2018-08-09T20:30:48.465Z,2.30
2018-08-09T20:33:18.280Z,2.10
2018-08-09T20:35:49.106Z,2.17
2018-08-09T20:38:18.886Z,2.10
2018-08-09T20:40:49.237Z,2.80
2018-08-09T20:43:19.752Z,2.50
2018-08-09T20:45:49.545Z,2.63
2018-08-09T20:48:20.115Z,2.47
2018-08-09T20:50:49.949Z,2.90
2018-08-09T20:53:20.209Z,3.37
2018-08-09T20:55:50.337Z,3.30
2018-08-09T20:58:21.541Z,3.80
2018-08-09T21:00:51.784Z,3.33
2018-08-09T21:03:23.955Z,2.53
2018-08-09T21:05:54.135Z,3.07
2018-08-09T21:08:23.876Z,2.30
2018-08-09T21:10:53.651Z,1.90
2018-08-09T21:13:23.822Z,2.30
2018-08-09T21:15:53.729Z,2.37
2018-08-09T21:18:23.490Z,2.43
2018-08-09T21:20:53.378Z,2.30
2018-08-09T21:23:23.413Z,2.30
2018-08-09T21:25:53.263Z,2.13
2018-08-09T21:28:23.260Z,2.37
2018-08-09T21:30:53.016Z,2.10
2018-08-09T21:33:22.630Z,1.83
2018-08-09T21:35:53.465Z,2.00
2018-08-09T21:38:23.203Z,2.10
2018-08-09T21:40:53.438Z,2.87
2018-08-09T21:43:23.324Z,2.07
2018-08-09T21:45:53.186Z,2.40
2018-08-09T21:48:23.085Z,1.83
2018-08-09T21:50:52.863Z,1.80
2018-08-09T21:53:22.795Z,2.23
2018-08-09T21:55:52.617Z,2.07
2018-08-09T21:58:22.470Z,2.07
2018-08-09T22:00:58.021Z,2.30
2018-08-09T22:03:31.564Z,2.37
2018-08-09T22:06:06.482Z,2.10
2018-08-09T22:08:41.548Z,2.60
2018-08-09T22:11:18.244Z,2.60
2018-08-09T22:13:53.285Z,2.87
2018-08-09T22:16:28.544Z,2.13
2018-08-09T22:19:04.101Z,2.40
2018-08-09T22:21:39.063Z,2.50
2018-08-09T22:24:08.733Z,2.07
2018-08-09T22:26:38.583Z,2.10
2018-08-09T22:29:08.520Z,2.20
2018-08-09T22:31:38.281Z,2.27
2018-08-09T22:34:08.841Z,2.33
2018-08-09T22:36:38.504Z,2.40
2018-08-09T22:39:10.453Z,2.20
2018-08-09T22:41:40.528Z,2.27
2018-08-09T22:44:10.484Z,2.00
2018-08-09T22:46:40.483Z,2.07
2018-08-09T22:49:10.494Z,1.80
2018-08-09T22:51:40.388Z,1.13
2018-08-09T22:54:10.240Z,1.27
2018-08-09T22:56:40.185Z,1.30
2018-08-09T22:59:10.137Z,1.00
2018-08-09T23:01:40.152Z,1.10
2018-08-09T23:04:10.524Z,1.13
2018-08-09T23:06:40.218Z,0.90
2018-08-09T23:09:11.620Z,1.53
2018-08-09T23:11:41.492Z,0.90
2018-08-09T23:14:11.867Z,1.40
2018-08-09T23:16:41.638Z,1.30
2018-08-09T23:19:11.738Z,1.50
2018-08-09T23:21:41.496Z,1.43
2018-08-09T23:24:11.528Z,1.37
2018-08-09T23:26:41.508Z,1.33
2018-08-09T23:29:11.575Z,1.43
2018-08-09T23:31:41.414Z,1.60
2018-08-09T23:34:11.712Z,1.43
2018-08-09T23:36:41.832Z,1.40
2018-08-09T23:39:13.074Z,1.80
2018-08-09T23:41:43.956Z,1.67
2018-08-09T23:44:13.764Z,1.83
2018-08-09T23:46:43.550Z,2.10
2018-08-09T23:49:13.998Z,1.70
2018-08-09T23:51:43.877Z,1.90
2018-08-09T23:54:13.591Z,1.57
2018-08-09T23:56:43.599Z,1.57
2018-08-09T23:59:13.549Z,1.40
